Time;durP1;ratioP1;P1;durP2;ratioP2;P2;SDS_P1;SDS_P2;PMS_P1;PMS_P2;Temp;Humidity;BMP_temperature;BMP_pressure;BME280_temperature;BME280_humidity;BME280_pressure;Samples;Min_cycle;Max_cycle;Signal;HPM_P1;HPM_P2
2023/04/09 00:00:28;;;;;;;20.13;16.20;;;;;;;10.29;100.00;102452.22;5059477;28;20476;-66
2023/04/09 00:02:56;;;;;;;23.33;18.20;;;;;;;10.30;100.00;102453.09;5026263;28;20059;-67
2023/04/09 00:05:24;;;;;;;24.15;19.05;;;;;;;10.27;100.00;102454.34;5039758;28;20081;-66
2023/04/09 00:07:52;;;;;;;22.10;18.20;;;;;;;10.27;100.00;102453.47;5039010;28;20046;-66
2023/04/09 00:10:20;;;;;;;22.55;16.25;;;;;;;10.25;100.00;102456.44;5029806;28;20424;-66
2023/04/09 00:12:47;;;;;;;21.40;18.20;;;;;;;10.27;100.00;102454.34;5038812;28;20054;-67
2023/04/09 00:15:15;;;;;;;23.20;19.00;;;;;;;10.31;100.00;102452.84;5039215;28;20451;-65
2023/04/09 00:17:57;;;;;;;23.10;18.48;;;;;;;10.32;100.00;102448.22;5040198;28;20095;-67
2023/04/09 00:20:25;;;;;;;23.98;18.98;;;;;;;10.32;100.00;102448.22;5038952;28;20107;-66
2023/04/09 00:22:54;;;;;;;24.40;20.13;;;;;;;10.30;100.00;102444.91;5047761;28;20052;-66
2023/04/09 00:25:22;;;;;;;24.63;18.98;;;;;;;10.27;100.00;102440.72;5059029;28;20111;-68
2023/04/09 00:27:51;;;;;;;27.15;21.40;;;;;;;10.24;100.00;102436.53;5039738;28;20081;-65
2023/04/09 00:30:19;;;;;;;23.45;19.15;;;;;;;10.21;100.00;102431.53;5041158;28;20107;-66
2023/04/09 00:32:47;;;;;;;24.48;19.52;;;;;;;10.22;100.00;102437.81;5043317;28;20072;-65
2023/04/09 00:35:16;;;;;;;23.40;19.10;;;;;;;10.23;100.00;102437.59;5053999;28;20124;-65
2023/04/09 00:37:44;;;;;;;24.75;19.35;;;;;;;10.24;100.00;102430.25;5060337;28;20049;-66
2023/04/09 00:40:12;;;;;;;22.20;17.55;;;;;;;10.22;100.00;102433.22;5057875;28;20049;-66
2023/04/09 00:42:40;;;;;;;23.67;18.67;;;;;;;10.19;100.00;102430.94;5065142;28;20099;-65
2023/04/09 00:45:08;;;;;;;24.35;18.70;;;;;;;10.19;100.00;102436.38;5027477;28;20416;-66
2023/04/09 00:47:36;;;;;;;21.92;17.85;;;;;;;10.17;100.00;102429.50;5048792;28;20434;-66
2023/04/09 00:50:04;;;;;;;22.83;18.55;;;;;;;10.14;100.00;102430.78;5057293;28;20120;-67
2023/04/09 00:52:32;;;;;;;26.27;19.48;;;;;;;10.13;100.00;102425.56;5042663;28;20045;-66
2023/04/09 00:55:02;;;;;;;21.98;17.75;;;;;;;10.14;100.00;102428.06;5047223;28;20466;-66
2023/04/09 00:57:30;;;;;;;23.60;18.95;;;;;;;10.17;100.00;102418.59;5038168;28;20045;-66
2023/04/09 00:59:58;;;;;;;24.58;18.40;;;;;;;10.17;100.00;102421.31;5029102;28;20056;-66
2023/04/09 01:02:26;;;;;;;22.85;17.98;;;;;;;10.15;100.00;102418.84;5058100;28;20048;-66
2023/04/09 01:04:54;;;;;;;24.73;20.40;;;;;;;10.17;100.00;102421.31;5057837;28;20052;-66
2023/04/09 01:08:00;;;;;;;22.80;17.85;;;;;;;10.17;100.00;102427.63;5042171;28;20049;-66
2023/04/09 01:10:46;;;;;;;24.30;18.10;;;;;;;10.16;100.00;102419.66;5042392;28;20068;-67
2023/04/09 01:13:46;;;;;;;23.10;18.23;;;;;;;10.06;100.00;102419.38;5040045;28;20045;-66
2023/04/09 01:16:16;;;;;;;23.88;18.35;;;;;;;10.04;100.00;102414.13;5051343;28;20057;-65
2023/04/09 01:18:50;;;;;;;27.02;19.23;;;;;;;10.05;100.00;102414.97;5061872;28;20112;-66
2023/04/09 01:21:21;;;;;;;26.15;19.75;;;;;;;10.09;100.00;102411.56;5047745;28;20103;-66
2023/04/09 01:24:17;;;;;;;24.42;19.17;;;;;;;10.10;100.00;102415.09;5053033;28;20064;-65
2023/04/09 01:27:04;;;;;;;25.77;20.63;;;;;;;10.09;100.00;102411.56;5015804;28;20057;-66
2023/04/09 01:29:56;;;;;;;26.77;19.45;;;;;;;10.09;100.00;102413.47;5015408;28;20042;-66
2023/04/09 01:32:25;;;;;;;25.42;20.52;;;;;;;10.10;100.00;102410.53;5030873;28;20448;-66
2023/04/09 01:34:53;;;;;;;23.65;19.08;;;;;;;10.12;100.00;102418.44;5021307;28;20120;-65
2023/04/09 01:37:22;;;;;;;25.90;19.92;;;;;;;10.12;100.00;102413.81;5044338;28;20052;-66
2023/04/09 01:39:50;;;;;;;26.45;21.55;;;;;;;10.10;100.00;102405.06;5054702;28;20052;-66
2023/04/09 01:42:18;;;;;;;27.55;21.92;;;;;;;10.07;100.00;102401.94;5056059;28;20099;-65
2023/04/09 01:44:46;;;;;;;28.67;22.08;;;;;;;10.02;100.00;102405.34;5051941;28;20061;-66
2023/04/09 01:47:14;;;;;;;27.92;21.73;;;;;;;10.03;100.00;102404.31;5054424;28;20041;-65
2023/04/09 01:49:42;;;;;;;29.33;22.70;;;;;;;10.07;100.00;102399.22;5036947;28;20045;-65
2023/04/09 01:52:10;;;;;;;30.20;23.90;;;;;;;10.06;100.00;102403.03;5035676;28;20095;-66
2023/04/09 01:54:38;;;;;;;29.23;23.70;;;;;;;10.05;100.00;102399.44;5034266;28;20041;-66
2023/04/09 01:57:06;;;;;;;30.33;22.52;;;;;;;10.05;100.00;102395.88;5035314;28;20049;-67
2023/04/09 01:59:34;;;;;;;29.40;22.92;;;;;;;10.03;100.00;102399.69;5049340;28;20076;-66
2023/04/09 02:02:08;;;;;;;31.15;23.92;;;;;;;10.05;100.00;102396.72;5038179;28;20084;-67
2023/04/09 02:04:43;;;;;;;28.98;22.92;;;;;;;10.05;100.00;102401.34;5033468;28;20050;-65
2023/04/09 02:07:26;;;;;;;30.20;22.75;;;;;;;10.05;100.00;102394.00;5033966;28;20045;-66
2023/04/09 02:09:54;;;;;;;30.25;22.23;;;;;;;10.00;100.00;102405.56;5033305;28;20474;-65
2023/04/09 02:12:23;;;;;;;30.08;23.95;;;;;;;10.01;100.00;102406.41;5049607;28;20107;-67
2023/04/09 02:14:52;;;;;;;29.70;22.63;;;;;;;10.00;100.00;102404.75;5038535;28;20119;-65
2023/04/09 02:17:21;;;;;;;31.38;23.27;;;;;;;9.98;100.00;102401.41;5018667;28;20041;-65
2023/04/09 02:19:48;;;;;;;29.20;23.45;;;;;;;9.99;100.00;102408.53;5036431;28;20056;-66
2023/04/09 02:22:16;;;;;;;28.85;22.50;;;;;;;9.99;100.00;102403.91;5033250;28;20527;-65
2023/04/09 02:24:45;;;;;;;27.92;21.95;;;;;;;10.01;100.00;102395.53;5050285;28;20115;-66
2023/04/09 02:27:13;;;;;;;29.70;23.55;;;;;;;10.01;100.00;102395.53;5032867;28;20473;-66
2023/04/09 02:29:41;;;;;;;30.70;21.08;;;;;;;10.01;100.00;102398.25;5042396;28;20041;-65
2023/04/09 02:32:09;;;;;;;28.42;22.45;;;;;;;10.03;100.00;102396.97;5050498;28;20053;-66
2023/04/09 02:34:37;;;;;;;30.83;23.00;;;;;;;10.03;100.00;102396.97;5038822;28;20073;-65
2023/04/09 02:37:04;;;;;;;29.88;24.15;;;;;;;10.02;100.00;102395.28;5016851;28;20408;-66
2023/04/09 02:39:32;;;;;;;34.08;24.35;;;;;;;10.02;100.00;102386.28;5016873;28;20494;-69
2023/04/09 02:42:01;;;;;;;31.85;23.15;;;;;;;9.98;100.00;102391.38;5049995;28;20049;-65
2023/04/09 02:44:28;;;;;;;31.55;23.38;;;;;;;9.99;100.00;102392.19;5032821;28;20049;-67
2023/04/09 02:46:57;;;;;;;32.92;23.75;;;;;;;9.99;100.00;102393.03;5034528;28;20132;-66
2023/04/09 02:49:24;;;;;;;33.47;24.77;;;;;;;9.96;100.00;102387.19;5034358;28;20397;-65
2023/04/09 02:51:52;;;;;;;32.42;24.75;;;;;;;9.91;100.00;102387.88;5039098;28;20566;-65
2023/04/09 02:54:20;;;;;;;33.00;24.67;;;;;;;9.89;100.00;102386.44;5032886;28;20049;-66
2023/04/09 02:56:47;;;;;;;33.22;25.90;;;;;;;9.89;100.00;102386.44;5034041;28;20049;-66
2023/04/09 02:59:15;;;;;;;34.45;26.48;;;;;;;9.86;100.00;102387.72;5034334;28;20481;-65
2023/04/09 03:01:43;;;;;;;32.35;25.90;;;;;;;9.83;100.00;102377.25;5040954;28;20408;-65
2023/04/09 03:04:11;;;;;;;32.17;25.85;;;;;;;9.81;100.00;102385.66;5046451;28;20045;-65
2023/04/09 03:06:39;;;;;;;35.08;26.48;;;;;;;9.79;100.00;102379.63;5034388;28;20052;-66
2023/04/09 03:09:09;;;;;;;34.65;26.60;;;;;;;9.80;100.00;102381.25;5034045;28;20119;-66
2023/04/09 03:11:37;;;;;;;35.35;27.38;;;;;;;9.81;100.00;102380.22;5036089;28;20481;-66
2023/04/09 03:14:05;;;;;;;36.28;28.30;;;;;;;9.82;100.00;102381.88;5036798;28;20053;-66
2023/04/09 03:16:32;;;;;;;38.45;28.42;;;;;;;9.81;100.00;102374.78;5028494;28;20045;-67
2023/04/09 03:19:00;;;;;;;36.28;27.50;;;;;;;9.79;100.00;102371.44;5032389;28;20045;-66
2023/04/09 03:21:28;;;;;;;37.08;27.00;;;;;;;9.81;100.00;102372.06;5015615;28;20117;-68
2023/04/09 03:23:55;;;;;;;37.08;27.15;;;;;;;9.83;100.00;102366.38;5050591;28;20048;-66
2023/04/09 03:26:23;;;;;;;38.67;27.88;;;;;;;9.80;100.00;102378.53;5054062;28;20049;-66
2023/04/09 03:28:51;;;;;;;36.80;27.15;;;;;;;9.79;100.00;102378.78;5030443;28;20037;-67
2023/04/09 03:31:20;;;;;;;35.30;27.08;;;;;;;9.79;100.00;102371.44;5032291;28;20127;-65
2023/04/09 03:33:47;;;;;;;37.53;27.00;;;;;;;9.79;100.00;102363.28;5028492;28;20045;-66
2023/04/09 03:36:15;;;;;;;35.28;27.40;;;;;;;9.80;100.00;102358.66;5033723;28;20121;-66
2023/04/09 03:39:06;;;;;;;34.60;26.92;;;;;;;9.81;100.00;102360.31;5000448;28;20480;-66
2023/04/09 03:41:36;;;;;;;36.08;27.85;;;;;;;9.81;100.00;102361.16;5016328;28;20111;-67
2023/04/09 03:44:09;;;;;;;35.20;26.45;;;;;;;9.78;100.00;102358.88;5027049;28;20053;-67
2023/04/09 03:46:54;;;;;;;36.13;26.92;;;;;;;9.68;100.00;102352.31;5036776;28;20674;-66
2023/04/09 03:49:22;;;;;;;34.72;27.25;;;;;;;9.64;100.00;102351.91;5037533;28;20058;-67
2023/04/09 03:51:49;;;;;;;35.28;27.40;;;;;;;9.66;100.00;102355.22;5033238;28;20043;-66
2023/04/09 03:54:18;;;;;;;35.67;27.08;;;;;;;9.66;100.00;102363.41;4999854;28;20513;-65
2023/04/09 03:56:46;;;;;;;35.72;26.58;;;;;;;9.66;100.00;102351.69;5034228;28;20046;-66
2023/04/09 03:59:19;;;;;;;32.25;24.55;;;;;;;9.65;100.00;102348.13;5017382;28;20050;-67
2023/04/09 04:01:47;;;;;;;37.80;27.30;;;;;;;9.62;100.00;102351.31;5016291;28;20057;-66
2023/04/09 04:04:15;;;;;;;32.80;25.77;;;;;;;9.58;100.00;102352.81;5042991;28;20056;-66
2023/04/09 04:06:47;;;;;;;32.28;23.65;;;;;;;9.56;100.00;102347.56;5033672;28;20056;-67
2023/04/09 04:09:24;;;;;;;31.02;23.70;;;;;;;9.51;100.00;102352.03;5035067;28;20041;-65
2023/04/09 04:11:57;;;;;;;35.85;25.48;;;;;;;9.47;100.00;102345.38;5046885;28;20115;-67
2023/04/09 04:14:38;;;;;;;34.65;24.23;;;;;;;9.46;100.00;102355.44;5009302;28;20136;-66
2023/04/09 04:17:16;;;;;;;32.33;23.63;;;;;;;9.46;100.00;102349.16;5051425;28;20049;-65
2023/04/09 04:19:44;;;;;;;34.40;23.52;;;;;;;9.45;100.00;102353.75;5033721;28;20401;-66
2023/04/09 04:22:12;;;;;;;30.00;23.58;;;;;;;9.43;100.00;102344.13;5032281;28;20057;-66
2023/04/09 04:24:43;;;;;;;32.83;23.85;;;;;;;9.41;100.00;102357.97;5035726;28;20079;-66
2023/04/09 04:27:16;;;;;;;31.60;23.77;;;;;;;9.43;100.00;102360.47;5051749;28;20535;-66
2023/04/09 04:29:44;;;;;;;31.45;23.35;;;;;;;9.43;100.00;102350.44;5052046;28;20065;-66
2023/04/09 04:32:23;;;;;;;29.92;22.40;;;;;;;9.43;100.00;102349.56;5039878;28;20081;-66
2023/04/09 04:34:51;;;;;;;31.10;22.73;;;;;;;9.44;100.00;102362.16;5035717;28;20049;-65
2023/04/09 04:37:25;;;;;;;30.13;21.90;;;;;;;9.42;100.00;102359.63;5049796;28;20041;-65
2023/04/09 04:39:57;;;;;;;31.00;22.63;;;;;;;9.36;100.00;102361.38;5035575;28;20473;-66
2023/04/09 04:42:25;;;;;;;30.17;22.92;;;;;;;9.32;100.00;102354.69;5042523;28;20536;-66
2023/04/09 04:44:53;;;;;;;30.88;23.00;;;;;;;9.26;100.00;102360.19;5041316;28;20057;-65
2023/04/09 04:47:35;;;;;;;28.67;21.92;;;;;;;9.15;100.00;102364.47;5036717;28;20095;-67
2023/04/09 04:50:05;;;;;;;31.10;22.73;;;;;;;9.07;100.00;102360.13;5036665;28;20046;-67
2023/04/09 04:52:41;;;;;;;31.73;22.25;;;;;;;9.02;100.00;102362.69;5019041;28;20110;-64
2023/04/09 04:55:10;;;;;;;33.35;23.13;;;;;;;8.98;100.00;102366.88;5035047;28;20514;-65
2023/04/09 04:57:38;;;;;;;30.70;22.77;;;;;;;8.96;100.00;102369.81;5040366;28;20041;-65
2023/04/09 05:00:07;;;;;;;29.23;21.15;;;;;;;9.01;100.00;102362.88;5016648;28;20046;-66
2023/04/09 05:02:36;;;;;;;28.15;20.80;;;;;;;9.00;100.00;102363.97;5015862;28;20050;-65
2023/04/09 05:05:25;;;;;;;32.40;22.80;;;;;;;9.00;100.00;102366.66;5057338;28;20043;-66
2023/04/09 05:07:56;;;;;;;30.30;21.67;;;;;;;8.98;100.00;102363.34;5055838;28;20041;-66
2023/04/09 05:10:24;;;;;;;29.13;22.67;;;;;;;8.93;100.00;102358.56;5059005;28;20104;-66
2023/04/09 05:12:52;;;;;;;32.78;22.67;;;;;;;8.88;100.00;102358.38;5008624;28;20131;-66
2023/04/09 05:15:32;;;;;;;30.20;22.67;;;;;;;8.85;100.00;102359.66;5020876;28;20460;-66
2023/04/09 05:18:00;;;;;;;29.00;22.13;;;;;;;8.84;100.00;102357.16;5004871;28;20499;-65
2023/04/09 05:20:28;;;;;;;30.15;22.33;;;;;;;8.78;100.00;102358.88;5021956;28;20477;-66
2023/04/09 05:23:09;;;;;;;32.40;22.65;;;;;;;8.76;100.00;102360.97;5027090;28;20053;-65
2023/04/09 05:25:40;;;;;;;27.50;20.83;;;;;;;8.80;100.00;102356.72;5032813;28;20053;-65
2023/04/09 05:28:15;;;;;;;30.27;21.98;;;;;;;8.89;100.00;102363.59;5037575;28;20045;-64
2023/04/09 05:30:47;;;;;;;28.73;21.98;;;;;;;8.88;100.00;102358.38;5018312;28;20053;-66
2023/04/09 05:33:17;;;;;;;30.75;22.52;;;;;;;8.84;100.00;102360.69;5034472;28;20103;-67
2023/04/09 05:35:45;;;;;;;30.40;23.10;;;;;;;8.80;100.00;102361.34;5033887;28;20045;-65
2023/04/09 05:38:13;;;;;;;32.05;22.70;;;;;;;8.77;100.00;102362.63;5033810;28;20405;-66
2023/04/09 05:40:44;;;;;;;30.73;22.50;;;;;;;8.68;100.00;102364.78;5035711;28;20087;-66
2023/04/09 05:43:13;;;;;;;29.75;22.17;;;;;;;8.66;100.00;102371.44;5017563;28;20049;-65
2023/04/09 05:45:43;;;;;;;29.95;22.17;;;;;;;8.63;100.00;102366.44;5037175;28;20132;-66
2023/04/09 05:48:11;;;;;;;29.45;22.13;;;;;;;8.69;100.00;102366.41;5017887;28;20061;-65
2023/04/09 05:50:39;;;;;;;29.90;23.23;;;;;;;8.72;100.00;102362.44;5042134;28;20041;-66
2023/04/09 05:53:21;;;;;;;29.35;22.45;;;;;;;8.72;100.00;102365.16;5053830;28;20041;-66
2023/04/09 05:55:50;;;;;;;31.40;23.33;;;;;;;8.73;100.00;102364.09;5034561;28;20073;-66
2023/04/09 05:58:22;;;;;;;30.20;22.23;;;;;;;8.70;100.00;102359.09;5071108;28;20561;-66
2023/04/09 06:00:51;;;;;;;32.72;23.00;;;;;;;8.64;100.00;102355.38;5036338;28;20072;-66
2023/04/09 06:03:23;;;;;;;36.88;24.58;;;;;;;8.60;100.00;102358.75;5057837;28;20059;-64
2023/04/09 06:05:51;;;;;;;32.85;23.30;;;;;;;8.56;100.00;102365.66;5042742;28;20124;-66
2023/04/09 06:08:19;;;;;;;32.63;23.35;;;;;;;8.52;100.00;102370.69;5034377;28;20045;-64
2023/04/09 06:10:47;;;;;;;32.80;23.63;;;;;;;8.51;100.00;102371.72;5035040;28;20068;-64
2023/04/09 06:13:15;;;;;;;34.42;23.27;;;;;;;8.51;100.00;102367.16;5002826;28;20084;-65
2023/04/09 06:15:42;;;;;;;31.55;24.08;;;;;;;8.53;100.00;102366.91;5034243;28;20158;-65
2023/04/09 06:18:10;;;;;;;34.45;24.15;;;;;;;8.52;100.00;102370.69;5053091;28;20037;-64
2023/04/09 06:20:38;;;;;;;35.22;24.50;;;;;;;8.48;100.00;102367.56;5049829;28;20128;-64
2023/04/09 06:23:05;;;;;;;32.90;23.83;;;;;;;8.48;100.00;102370.28;5035233;28;20045;-64
2023/04/09 06:25:34;;;;;;;31.80;23.23;;;;;;;8.46;100.00;102368.81;5034278;28;20081;-65
2023/04/09 06:28:02;;;;;;;33.72;24.20;;;;;;;8.47;100.00;102376.78;5039890;28;20036;-64
2023/04/09 06:30:30;;;;;;;36.00;23.52;;;;;;;8.52;100.00;102374.25;5032001;28;20087;-65
2023/04/09 06:32:58;;;;;;;33.60;23.40;;;;;;;8.50;100.00;102389.09;5033707;28;20103;-63
2023/04/09 06:35:27;;;;;;;31.40;23.13;;;;;;;8.51;100.00;102390.75;5032906;28;20076;-64
2023/04/09 06:37:54;;;;;;;33.35;24.00;;;;;;;8.48;100.00;102385.75;5040760;28;20041;-64
2023/04/09 06:40:25;;;;;;;32.85;23.90;;;;;;;8.49;100.00;102392.84;5034360;28;20493;-65
2023/04/09 06:42:53;;;;;;;33.55;24.55;;;;;;;8.48;100.00;102385.75;5032711;28;20499;-67
2023/04/09 06:45:27;;;;;;;32.72;23.65;;;;;;;8.50;100.00;102389.09;5045218;28;20061;-66
2023/04/09 06:47:55;;;;;;;34.83;24.38;;;;;;;8.46;100.00;102388.66;5033221;28;20041;-66
2023/04/09 06:50:23;;;;;;;32.03;23.73;;;;;;;8.49;100.00;102393.69;5033601;28;20053;-65
2023/04/09 06:52:51;;;;;;;36.15;24.40;;;;;;;8.55;100.00;102389.28;5030787;28;20073;-64
2023/04/09 06:55:19;;;;;;;31.35;23.40;;;;;;;8.63;100.00;102390.91;5031836;28;20065;-66
2023/04/09 06:57:46;;;;;;;34.78;25.35;;;;;;;8.66;100.00;102388.59;5033994;28;20077;-64
2023/04/09 07:00:15;;;;;;;32.45;24.42;;;;;;;8.67;100.00;102384.00;5034567;28;20436;-64
2023/04/09 07:02:42;;;;;;;32.70;23.08;;;;;;;8.67;100.00;102381.28;5033264;28;20057;-64
2023/04/09 07:05:11;;;;;;;32.85;23.58;;;;;;;8.72;100.00;102389.63;5041751;28;20072;-64
2023/04/09 07:07:38;;;;;;;32.53;24.77;;;;;;;8.82;100.00;102392.69;5053453;28;20531;-65
2023/04/09 07:10:06;;;;;;;34.00;24.65;;;;;;;8.91;100.00;102396.81;5052177;28;20064;-64
2023/04/09 07:12:34;;;;;;;34.78;24.58;;;;;;;8.93;100.00;102400.16;5019822;28;20509;-65
2023/04/09 07:15:09;;;;;;;36.60;25.27;;;;;;;8.92;100.00;102395.78;5050046;28;20049;-65
2023/04/09 07:17:36;;;;;;;33.72;24.92;;;;;;;8.91;100.00;102396.81;5033802;28;20107;-65
2023/04/09 07:20:05;;;;;;;31.35;23.60;;;;;;;8.91;100.00;102396.00;5016542;28;20049;-64
2023/04/09 07:22:32;;;;;;;33.28;25.25;;;;;;;8.95;100.00;102400.78;5033284;28;20076;-64
2023/04/09 07:25:00;;;;;;;34.67;25.15;;;;;;;9.01;100.00;102400.94;5031493;28;20068;-63
2023/04/09 07:27:28;;;;;;;33.00;24.20;;;;;;;9.05;100.00;102402.19;5053614;28;20445;-64
2023/04/09 07:29:57;;;;;;;35.08;25.77;;;;;;;9.02;100.00;102403.47;5049901;28;20477;-65
2023/04/09 07:32:26;;;;;;;31.40;24.42;;;;;;;9.03;100.00;102404.28;5052738;28;20102;-64
2023/04/09 07:34:54;;;;;;;33.90;25.45;;;;;;;9.04;100.00;102404.06;5045447;28;20053;-64
2023/04/09 07:37:22;;;;;;;34.45;25.88;;;;;;;9.05;100.00;102407.63;5052940;28;20052;-65
2023/04/09 07:39:51;;;;;;;35.38;25.73;;;;;;;9.03;100.00;102398.84;5036050;28;20041;-63
2023/04/09 07:42:18;;;;;;;33.70;25.48;;;;;;;9.04;100.00;102401.34;5053382;28;20123;-64
2023/04/09 07:44:47;;;;;;;33.22;25.33;;;;;;;9.09;100.00;102403.41;5048803;28;20093;-63
2023/04/09 07:47:15;;;;;;;31.20;24.00;;;;;;;9.14;100.00;102401.72;5032358;28;20052;-64
2023/04/09 07:49:43;;;;;;;36.33;25.65;;;;;;;9.20;100.00;102399.16;5032520;28;20056;-64
2023/04/09 07:52:10;;;;;;;35.10;27.13;;;;;;;9.25;100.00;102396.59;5033212;28;20081;-64
2023/04/09 07:54:38;;;;;;;35.83;26.70;;;;;;;9.28;100.00;102396.16;5032827;28;20037;-64
2023/04/09 07:57:06;;;;;;;39.35;26.95;;;;;;;9.30;100.00;102394.88;5033778;28;20361;-63
2023/04/09 07:59:35;;;;;;;39.20;28.33;;;;;;;9.34;100.00;102396.13;5033274;28;20052;-65
2023/04/09 08:02:03;;;;;;;35.67;28.65;;;;;;;9.41;100.00;102389.81;5032154;28;20141;-64
2023/04/09 08:04:31;;;;;;;34.22;26.42;;;;;;;9.44;100.00;102386.63;5032126;28;20400;-64
2023/04/09 08:06:59;;;;;;;35.88;27.15;;;;;;;9.48;100.00;102393.31;5034985;28;20490;-63
2023/04/09 08:09:27;;;;;;;34.08;25.98;;;;;;;9.54;100.00;102395.94;5037939;28;20066;-64
2023/04/09 08:11:54;;;;;;;30.45;24.05;;;;;;;9.61;100.00;102398.63;5075613;28;20048;-62
2023/04/09 08:14:22;;;;;;;37.50;28.15;;;;;;;9.68;100.00;102391.22;5071153;28;20057;-64
2023/04/09 08:16:50;;;;;;;38.17;27.00;;;;;;;9.77;100.00;102392.63;5049726;28;20151;-64
2023/04/09 08:19:19;;;;;;;35.80;26.85;;;;;;;9.83;100.00;102399.03;5056482;28;20073;-66
2023/04/09 08:21:50;;;;;;;35.40;26.55;;;;;;;9.87;100.00;102394.00;5055793;28;20045;-64
2023/04/09 08:24:18;;;;;;;36.45;28.42;;;;;;;9.87;100.00;102399.44;5040118;28;20401;-62
2023/04/09 08:26:46;;;;;;;36.60;28.08;;;;;;;9.88;100.00;102395.66;5036598;28;20072;-63
2023/04/09 08:29:14;;;;;;;35.90;27.35;;;;;;;9.88;100.00;102384.75;5036979;28;20068;-64
2023/04/09 08:31:42;;;;;;;36.95;27.33;;;;;;;9.91;100.00;102395.19;5019834;28;20046;-64
2023/04/09 08:34:10;;;;;;;34.13;26.00;;;;;;;9.91;100.00;102395.19;5036864;28;20073;-63
2023/04/09 08:36:37;;;;;;;33.92;26.30;;;;;;;9.91;100.00;102400.63;5050577;28;20049;-63
2023/04/09 08:39:05;;;;;;;35.95;25.60;;;;;;;9.90;100.00;102398.97;5055707;28;20052;-65
2023/04/09 08:41:34;;;;;;;36.95;26.42;;;;;;;9.90;100.00;102393.53;5072296;28;20075;-65
2023/04/09 08:44:01;;;;;;;35.60;26.08;;;;;;;9.93;100.00;102393.06;5033348;28;20053;-63
2023/04/09 08:46:29;;;;;;;30.50;23.02;;;;;;;9.97;100.00;102391.56;5042275;28;20488;-64
2023/04/09 08:48:57;;;;;;;34.63;24.50;;;;;;;10.03;100.00;102393.41;5055147;28;20041;-64
2023/04/09 08:51:25;;;;;;;35.65;27.05;;;;;;;10.07;100.00;102391.88;5056382;28;20542;-66
2023/04/09 08:54:00;;;;;;;36.38;27.35;;;;;;;10.10;100.00;102396.91;5031571;28;20056;-66
2023/04/09 08:56:32;;;;;;;35.28;27.42;;;;;;;10.10;100.00;102388.72;5016718;28;20472;-64
2023/04/09 08:58:59;;;;;;;35.13;26.10;;;;;;;10.14;100.00;102384.47;5016668;28;20485;-65
2023/04/09 09:01:29;;;;;;;34.88;27.38;;;;;;;10.15;100.00;102380.72;5015873;28;20050;-65
2023/04/09 09:04:05;;;;;;;35.75;27.42;;;;;;;10.17;100.00;102389.50;5021653;28;20155;-65
2023/04/09 09:06:36;;;;;;;34.23;26.93;;;;;;;10.21;100.00;102378.97;5038978;28;20045;-65
2023/04/09 09:09:11;;;;;;;34.53;26.98;;;;;;;10.24;100.00;102373.88;5036878;28;20053;-66
2023/04/09 09:11:49;;;;;;;29.97;22.93;;;;;;;10.29;100.00;102373.22;5040517;28;20081;-65
2023/04/09 09:14:18;;;;;;;39.22;25.67;;;;;;;10.33;100.00;102377.16;5038910;28;20632;-64
2023/04/09 09:17:07;;;;;;;32.88;24.10;;;;;;;10.36;100.00;102373.16;5037572;28;20049;-62
2023/04/09 09:19:36;;;;;;;32.13;24.75;;;;;;;10.36;100.00;102375.88;5032826;28;20045;-62
2023/04/09 09:22:06;;;;;;;31.42;23.85;;;;;;;10.38;100.00;102379.22;5079754;28;20390;-68
2023/04/09 09:24:48;;;;;;;22.25;15.95;;;;;;;10.58;100.00;102382.53;5024588;28;20123;-65
2023/04/09 09:27:39;;;;;;;27.85;21.02;;;;;;;10.69;97.23;102369.19;5037461;28;20042;-66
2023/04/09 09:30:07;;;;;;;34.65;25.38;;;;;;;10.68;96.30;102373.81;5047195;28;20498;-65
2023/04/09 09:32:35;;;;;;;33.72;25.10;;;;;;;10.66;96.48;102374.03;5049645;28;20045;-66
2023/04/09 09:35:05;;;;;;;29.77;24.42;;;;;;;10.62;97.84;102374.72;5031842;28;20481;-67
2023/04/09 09:37:33;;;;;;;31.83;24.55;;;;;;;10.59;97.43;102367.81;5023535;28;20541;-65
2023/04/09 09:40:01;;;;;;;31.55;25.75;;;;;;;10.60;98.17;102372.19;5018815;28;20048;-65
2023/04/09 09:42:28;;;;;;;32.22;25.42;;;;;;;10.64;97.65;102372.59;5057947;28;20512;-65
2023/04/09 09:44:56;;;;;;;33.58;23.95;;;;;;;10.70;97.50;102370.81;5046273;28;20103;-66
2023/04/09 09:47:24;;;;;;;25.25;19.58;;;;;;;10.76;98.30;102364.47;5034671;28;20041;-65
2023/04/09 09:49:53;;;;;;;26.10;19.05;;;;;;;10.84;98.32;102361.41;5039915;28;20068;-65
2023/04/09 09:52:25;;;;;;;26.35;19.73;;;;;;;10.93;98.19;102360.00;5047650;28;20046;-65
2023/04/09 09:54:54;;;;;;;28.17;20.27;;;;;;;10.96;99.81;102356.81;5013419;28;20065;-67
2023/04/09 09:57:24;;;;;;;26.60;20.88;;;;;;;10.97;98.85;102355.75;5014567;28;20081;-66
2023/04/09 10:00:00;;;;;;;29.15;23.40;;;;;;;10.97;96.83;102344.84;5013679;28;20042;-64
2023/04/09 10:02:33;;;;;;;31.52;25.08;;;;;;;11.01;96.71;102339.75;5029913;28;20103;-65
2023/04/09 10:05:01;;;;;;;31.30;23.73;;;;;;;11.07;96.16;102339.66;5036276;28;20120;-64
2023/04/09 10:07:30;;;;;;;29.45;21.45;;;;;;;11.15;96.05;102335.75;5046275;28;20041;-68
2023/04/09 10:09:59;;;;;;;28.05;21.27;;;;;;;11.20;95.34;102338.59;5034011;28;20049;-65
2023/04/09 10:12:26;;;;;;;29.15;23.55;;;;;;;11.27;94.49;102338.50;5053744;28;20124;-65
2023/04/09 10:14:55;;;;;;;32.45;24.45;;;;;;;11.27;94.65;102338.50;5038910;28;20500;-65
2023/04/09 10:17:22;;;;;;;29.05;22.45;;;;;;;11.28;94.79;102329.22;5051675;28;20051;-66
2023/04/09 10:20:11;;;;;;;31.42;22.73;;;;;;;11.28;94.10;102334.69;5047791;28;20045;-65
2023/04/09 10:22:39;;;;;;;29.25;21.75;;;;;;;11.28;93.35;102337.41;4682178;28;9999782;-65
2023/04/09 10:25:08;;;;;;;32.28;22.40;;;;;;;11.29;92.56;102330.91;5038821;28;20323;-65
2023/04/09 10:27:36;;;;;;;27.38;20.92;;;;;;;11.27;92.04;102331.13;5030608;28;20119;-66
2023/04/09 10:30:06;;;;;;;27.15;21.08;;;;;;;11.28;91.14;102331.97;5033536;28;20049;-65
2023/04/09 10:32:37;;;;;;;26.98;20.25;;;;;;;11.27;89.72;102327.59;5013185;28;20053;-65
2023/04/09 10:35:05;;;;;;;26.00;19.77;;;;;;;11.27;90.02;102324.84;5037526;28;20397;-66
2023/04/09 10:37:35;;;;;;;27.05;20.23;;;;;;;11.30;89.70;102318.91;5051695;28;20079;-66
2023/04/09 10:40:03;;;;;;;24.58;19.25;;;;;;;11.36;88.90;102317.16;5037612;28;20080;-66
2023/04/09 10:42:42;;;;;;;24.60;19.85;;;;;;;11.41;85.89;102315.38;5031033;28;20456;-66
2023/04/09 10:45:10;;;;;;;24.52;18.15;;;;;;;11.41;85.19;102312.66;5027786;28;20071;-68
2023/04/09 10:47:41;;;;;;;24.20;18.55;;;;;;;11.40;85.24;102313.72;5029537;28;20049;-65
2023/04/09 10:50:24;;;;;;;22.33;16.70;;;;;;;11.39;82.79;102303.84;5030322;28;20072;-66
2023/04/09 10:52:55;;;;;;;24.15;16.70;;;;;;;11.39;81.76;102298.41;5028430;28;20050;-66
2023/04/09 10:55:35;;;;;;;22.35;16.88;;;;;;;11.40;81.21;102302.81;5030493;28;20072;-66
2023/04/09 10:58:08;;;;;;;20.63;16.17;;;;;;;11.43;81.49;102305.06;5049766;28;20037;-67
2023/04/09 11:00:40;;;;;;;;;;;;;;;11.48;84.10;102302.44;5030735;28;20045;-65
2023/04/09 11:03:30;;;;;;;22.35;15.57;;;;;;;11.49;83.10;102295.91;5046410;28;19929;-68
2023/04/09 11:06:07;;;;;;;18.98;13.55;;;;;;;11.57;81.16;102296.59;5042323;28;20044;-67
2023/04/09 11:08:41;;;;;;;15.45;11.27;;;;;;;11.66;82.25;102285.09;5040332;28;20045;-65
2023/04/09 11:11:10;;;;;;;21.02;13.18;;;;;;;11.71;80.34;102284.38;5036480;28;20061;-66
2023/04/09 11:13:41;;;;;;;17.35;12.48;;;;;;;11.79;74.94;102281.28;5047247;28;20056;-66
2023/04/09 11:16:11;;;;;;;17.33;13.18;;;;;;;11.88;73.69;102282.63;5027993;28;20136;-67
2023/04/09 11:18:52;;;;;;;19.20;13.93;;;;;;;11.93;72.67;102282.72;5033261;28;20144;-67
2023/04/09 11:21:20;;;;;;;17.42;11.73;;;;;;;12.03;72.45;102278.53;5015237;28;20097;-67